Terminal Aerodrome Forecast
Issued by NWS

Home | Current Version | Previous Version | Text Only | Print | Product List | Glossary On
Versions: 1 2 3 4 5 6 7 8 9 10 11 12 13 14 15 16 17 18 19 20 21 22 23 24 25 26 27 28 29 30 31 32 33 34 35 36 37 38 39 40 41 42 43 44 45 46 47 48 49 50
000
FTUS44 KHGX 290748 AAA
TAFLBX
TAF AMD
KLBX 290748Z 2908/3006 36003KT P6SM VCSH FEW045
     FM290900 VRB03KT P6SM VCSH SCT015 SCT250
     FM291300 21007KT P6SM VCSH BKN020 BKN035
      TEMPO 2913/2916 TSRA BKN030CB
     FM291700 20012KT P6SM SCT035=

USA.gov is the U.S. government's official web portal to all federal, state and local government web resources and services.